createdAt,value
2022-08-04T00:00:22.158Z,6.44
2022-08-04T00:02:47.769Z,6.42
2022-08-04T00:04:02.550Z,6.65
2022-08-04T00:05:08.069Z,7.18
2022-08-04T00:06:35.550Z,6.59
2022-08-04T00:07:50.478Z,6.73
2022-08-04T00:08:58.485Z,6.56
2022-08-04T00:10:04.031Z,6.12
2022-08-04T00:11:08.522Z,6.60
2022-08-04T00:12:15.974Z,6.47
2022-08-04T00:13:27.435Z,6.52
2022-08-04T00:14:33.175Z,6.42
2022-08-04T00:15:37.827Z,6.28
2022-08-04T00:16:41.418Z,7.51
2022-08-04T00:17:47.142Z,6.31
2022-08-04T00:18:53.724Z,6.26
2022-08-04T00:19:59.598Z,6.40
2022-08-04T00:21:04.786Z,6.42
2022-08-04T00:22:09.705Z,7.07
2022-08-04T00:23:13.028Z,7.47
2022-08-04T00:24:17.449Z,6.95
2022-08-04T00:25:19.772Z,7.12
2022-08-04T00:26:22.334Z,7.96
2022-08-04T00:27:25.020Z,7.27
2022-08-04T00:28:28.221Z,6.79
2022-08-04T00:29:30.907Z,6.91
2022-08-04T00:30:33.775Z,7.56
2022-08-04T00:31:56.905Z,7.05
2022-08-04T00:32:41.579Z,6.73
2022-08-04T00:33:48.449Z,7.12
2022-08-04T00:34:52.627Z,7.49
2022-08-04T00:35:56.718Z,7.22
2022-08-04T00:36:59.034Z,8.01
2022-08-04T00:38:02.112Z,7.81
2022-08-04T00:39:05.013Z,7.80
2022-08-04T00:40:35.051Z,7.51
2022-08-04T00:42:01.055Z,7.37
2022-08-04T00:43:15.398Z,6.73
2022-08-04T00:44:36.281Z,7.69
2022-08-04T00:46:16.386Z,6.33
2022-08-04T00:47:18.777Z,7.26
2022-08-04T00:48:43.338Z,7.27
2022-08-04T00:50:00.892Z,6.78
2022-08-04T00:51:21.762Z,7.31
2022-08-04T00:52:36.574Z,7.62
2022-08-04T00:53:49.833Z,6.99
2022-08-04T00:55:08.591Z,7.76
2022-08-04T00:56:13.080Z,7.41
2022-08-04T00:57:41.451Z,7.57
2022-08-04T00:59:04.996Z,7.56
2022-08-04T01:00:10.999Z,6.76
2022-08-04T01:01:44.011Z,6.12
2022-08-04T01:03:07.473Z,7.91
2022-08-04T01:04:26.101Z,7.83
2022-08-04T01:05:37.746Z,7.51
2022-08-04T01:07:03.900Z,6.67
2022-08-04T01:08:21.703Z,7.72
2022-08-04T01:11:06.582Z,7.01
2022-08-04T01:12:15.133Z,7.16
2022-08-04T01:13:42.506Z,7.34
2022-08-04T01:15:05.972Z,7.01
2022-08-04T01:16:10.090Z,7.59
2022-08-04T01:17:34.264Z,6.33
2022-08-04T01:19:00.433Z,6.98
2022-08-04T01:20:08.986Z,7.16
2022-08-04T01:21:30.209Z,7.71
2022-08-04T01:22:36.250Z,7.23
2022-08-04T01:23:51.302Z,7.52
2022-08-04T01:25:17.208Z,7.93
2022-08-04T01:26:53.833Z,7.72
2022-08-04T01:28:16.592Z,8.01
2022-08-04T01:29:29.216Z,6.69
2022-08-04T01:30:32.321Z,7.12
2022-08-04T01:31:44.032Z,8.12
2022-08-04T01:32:55.145Z,8.30
2022-08-04T01:34:04.278Z,8.66
2022-08-04T01:35:21.609Z,7.58
2022-08-04T01:36:24.505Z,7.70
2022-08-04T01:37:51.272Z,8.80
2022-08-04T01:38:54.689Z,7.16
2022-08-04T01:40:04.001Z,8.08
2022-08-04T01:41:12.152Z,8.24
2022-08-04T01:42:31.413Z,8.03
2022-08-04T01:43:23.644Z,8.57
2022-08-04T01:44:27.935Z,7.81
2022-08-04T01:45:30.823Z,8.76
2022-08-04T01:46:34.836Z,8.86
2022-08-04T01:47:43.200Z,8.94
2022-08-04T01:48:47.313Z,7.83
2022-08-04T01:49:50.198Z,8.15
2022-08-04T01:50:55.553Z,7.86
2022-08-04T01:51:58.934Z,8.29
2022-08-04T01:53:03.691Z,8.05
2022-08-04T01:54:08.582Z,8.71
2022-08-04T01:55:13.607Z,7.41
2022-08-04T01:56:20.608Z,7.74
2022-08-04T01:57:38.688Z,8.36
2022-08-04T01:58:30.040Z,8.24
2022-08-04T01:59:35.145Z,8.53
2022-08-04T02:00:41.003Z,8.69
2022-08-04T02:01:43.568Z,8.73
2022-08-04T02:02:46.731Z,8.79
2022-08-04T02:04:20.078Z,8.16
2022-08-04T02:04:53.334Z,8.69
2022-08-04T02:06:03.373Z,8.15
2022-08-04T02:07:37.802Z,8.63
2022-08-04T02:09:09.286Z,8.44
2022-08-04T02:10:39.832Z,8.46
2022-08-04T02:11:48.593Z,9.64
2022-08-04T02:13:11.098Z,8.42
2022-08-04T02:14:26.078Z,7.68
2022-08-04T02:15:41.002Z,8.41
2022-08-04T02:16:52.505Z,9.13
2022-08-04T02:18:03.351Z,9.21
2022-08-04T02:19:21.390Z,8.73
2022-08-04T02:21:49.817Z,9.83
2022-08-04T02:23:01.330Z,9.08
2022-08-04T02:24:09.567Z,9.36
2022-08-04T02:25:15.149Z,9.25
2022-08-04T02:26:22.714Z,9.37
2022-08-04T02:27:28.360Z,8.67
2022-08-04T02:28:39.362Z,8.40
2022-08-04T02:29:51.351Z,9.21
2022-08-04T02:31:28.753Z,9.34
2022-08-04T02:32:34.791Z,8.09
2022-08-04T02:33:40.171Z,9.27
2022-08-04T02:34:46.119Z,8.76
2022-08-04T02:35:52.107Z,9.36
2022-08-04T02:36:56.023Z,8.98
2022-08-04T02:38:07.891Z,9.36
2022-08-04T02:39:11.757Z,8.78
2022-08-04T02:40:19.681Z,8.64
2022-08-04T02:41:25.020Z,9.32
2022-08-04T02:42:31.460Z,9.43
2022-08-04T02:43:50.743Z,9.62
2022-08-04T02:44:41.693Z,9.72
2022-08-04T02:45:46.177Z,9.56
2022-08-04T02:46:51.256Z,8.96
2022-08-04T02:48:28.659Z,9.05
2022-08-04T02:49:02.568Z,9.34
2022-08-04T02:50:07.192Z,8.67
2022-08-04T02:51:12.735Z,8.69
2022-08-04T02:52:17.747Z,9.59
2022-08-04T02:53:22.382Z,8.83
2022-08-04T02:54:32.850Z,9.09
2022-08-04T02:55:33.175Z,9.36
2022-08-04T02:56:38.943Z,10.05
2022-08-04T02:57:43.545Z,9.53
2022-08-04T02:58:49.298Z,9.17
2022-08-04T03:00:12.209Z,9.94
2022-08-04T03:01:14.229Z,9.58
2022-08-04T03:02:20.405Z,9.83
2022-08-04T03:04:54.772Z,10.11
2022-08-04T03:06:12.648Z,9.89
2022-08-04T03:07:33.444Z,9.83
2022-08-04T03:09:12.973Z,9.91
2022-08-04T03:10:31.541Z,9.73
2022-08-04T03:12:06.723Z,10.63
2022-08-04T03:13:29.539Z,9.74
2022-08-04T03:14:55.218Z,10.92
2022-08-04T03:16:12.554Z,10.26
2022-08-04T03:17:52.944Z,10.04
2022-08-04T03:19:20.754Z,10.20
2022-08-04T03:20:32.530Z,10.93
2022-08-04T03:21:50.911Z,10.44
2022-08-04T03:23:13.605Z,10.72
2022-08-04T03:24:42.767Z,9.69
2022-08-04T03:26:06.753Z,9.52
2022-08-04T03:27:24.377Z,11.15
2022-08-04T03:29:05.962Z,10.13
2022-08-04T03:30:29.772Z,10.01
2022-08-04T03:31:41.640Z,10.23
2022-08-04T03:33:10.813Z,11.05
2022-08-04T03:34:34.998Z,10.37
2022-08-04T03:36:00.491Z,10.17
2022-08-04T03:37:17.935Z,9.71
2022-08-04T03:38:32.872Z,10.66
2022-08-04T03:39:55.401Z,10.78
2022-08-04T03:41:51.847Z,11.73
2022-08-04T03:42:56.912Z,10.08
2022-08-04T03:44:17.954Z,10.07
2022-08-04T03:45:41.874Z,11.38
2022-08-04T03:47:07.422Z,11.09
2022-08-04T03:48:36.019Z,10.75
2022-08-04T03:50:15.716Z,10.28
2022-08-04T03:51:35.169Z,11.09
2022-08-04T03:52:53.525Z,11.62
2022-08-04T03:54:27.768Z,11.19
2022-08-04T03:55:42.632Z,10.79
2022-08-04T03:57:09.758Z,12.10
2022-08-04T03:58:33.850Z,12.06
2022-08-04T03:59:49.094Z,12.27
2022-08-04T04:00:55.265Z,11.40
2022-08-04T04:02:20.109Z,11.13
2022-08-04T04:03:47.780Z,11.07
2022-08-04T04:05:13.240Z,11.74
2022-08-04T04:08:01.333Z,12.67
2022-08-04T04:09:00.590Z,12.26
2022-08-04T04:10:26.813Z,12.92
2022-08-04T04:11:56.653Z,11.69
2022-08-04T04:12:49.202Z,12.69
2022-08-04T04:14:04.129Z,12.54
2022-08-04T04:16:46.248Z,12.40
2022-08-04T04:18:04.158Z,12.03
2022-08-04T04:19:10.002Z,11.36
2022-08-04T04:20:27.522Z,11.88
2022-08-04T04:21:54.691Z,11.96
2022-08-04T04:23:06.793Z,11.24
2022-08-04T04:24:34.729Z,11.33
2022-08-04T04:25:55.744Z,11.21
2022-08-04T04:27:04.554Z,11.53
2022-08-04T04:28:46.056Z,12.31
2022-08-04T04:29:51.908Z,11.35
2022-08-04T04:31:15.985Z,11.28
2022-08-04T04:32:24.945Z,11.51
2022-08-04T04:33:55.136Z,12.69
2022-08-04T04:36:37.847Z,11.72
2022-08-04T04:37:58.399Z,11.11
2022-08-04T04:39:10.559Z,11.98
2022-08-04T04:40:29.141Z,12.04
2022-08-04T04:43:05.184Z,11.36
2022-08-04T04:44:30.741Z,11.33
2022-08-04T04:45:56.166Z,10.74
2022-08-04T04:47:02.150Z,10.76
2022-08-04T04:48:11.216Z,11.88
2022-08-04T04:49:35.734Z,11.41
2022-08-04T04:50:50.871Z,11.12
2022-08-04T04:51:59.818Z,10.03
2022-08-04T04:53:08.459Z,11.37
2022-08-04T04:54:17.378Z,11.54
2022-08-04T04:55:23.296Z,11.41
2022-08-04T04:56:38.220Z,11.26
2022-08-04T04:57:53.082Z,11.32
2022-08-04T04:58:46.753Z,11.30
2022-08-04T04:59:55.255Z,11.57
2022-08-04T05:01:10.374Z,11.34
2022-08-04T05:02:16.244Z,11.34
2022-08-04T05:03:42.179Z,11.79
2022-08-04T05:04:56.897Z,11.26
2022-08-04T05:07:43.568Z,12.76
2022-08-04T05:09:03.913Z,10.89
2022-08-04T05:10:27.938Z,11.70
2022-08-04T05:11:34.033Z,11.14
2022-08-04T05:14:32.612Z,12.44
2022-08-04T05:14:34.618Z,12.09
2022-08-04T05:15:09.961Z,11.91
2022-08-04T05:16:28.621Z,12.03
2022-08-04T05:17:43.494Z,11.71
2022-08-04T05:18:49.239Z,12.67
2022-08-04T05:20:04.415Z,12.97
2022-08-04T05:21:22.632Z,11.58
2022-08-04T05:22:34.005Z,11.48
2022-08-04T05:23:39.258Z,12.51
2022-08-04T05:24:44.452Z,12.43
2022-08-04T05:26:05.489Z,10.89
2022-08-04T05:27:17.093Z,11.57
2022-08-04T05:29:41.033Z,11.98
2022-08-04T05:30:49.614Z,11.69
2022-08-04T05:31:55.439Z,12.01
2022-08-04T05:33:03.802Z,11.57
2022-08-04T05:34:11.074Z,12.34
2022-08-04T05:35:17.002Z,11.13
2022-08-04T05:36:40.446Z,12.03
2022-08-04T05:37:36.415Z,10.80
2022-08-04T05:38:41.934Z,11.72
2022-08-04T05:39:47.968Z,12.17
2022-08-04T05:40:51.792Z,12.74
2022-08-04T05:41:58.336Z,13.19
2022-08-04T05:43:00.984Z,13.93
2022-08-04T05:44:03.757Z,12.97
2022-08-04T05:45:08.473Z,14.15
2022-08-04T05:46:13.231Z,11.80
2022-08-04T05:47:16.583Z,11.72
2022-08-04T05:48:19.050Z,12.82
2022-08-04T05:49:26.301Z,12.17
2022-08-04T05:50:31.284Z,12.77
2022-08-04T05:51:35.845Z,12.32
2022-08-04T05:52:39.367Z,12.53
2022-08-04T05:53:43.558Z,13.36
2022-08-04T05:54:47.470Z,13.28
2022-08-04T05:55:58.839Z,11.51
2022-08-04T05:56:57.662Z,11.96
2022-08-04T05:58:01.582Z,12.53
2022-08-04T05:59:04.823Z,12.04
2022-08-04T06:00:31.804Z,11.33
2022-08-04T06:01:16.154Z,12.31
2022-08-04T06:02:19.931Z,12.81
2022-08-04T06:03:25.205Z,12.04
2022-08-04T06:04:41.554Z,12.33
2022-08-04T06:05:45.706Z,11.68
2022-08-04T06:06:48.590Z,11.21
2022-08-04T06:08:07.808Z,11.89
2022-08-04T06:08:56.171Z,11.93
2022-08-04T06:09:59.476Z,11.03
2022-08-04T06:11:04.955Z,11.22
2022-08-04T06:12:11.176Z,11.27
2022-08-04T06:13:46.745Z,12.17
2022-08-04T06:14:23.681Z,11.59
2022-08-04T06:15:28.295Z,11.68
2022-08-04T06:16:36.085Z,11.40
2022-08-04T06:19:57.203Z,11.69
2022-08-04T06:20:00.788Z,10.48
2022-08-04T06:20:17.818Z,11.20
2022-08-04T06:21:03.721Z,11.93
2022-08-04T06:22:11.260Z,11.49
2022-08-04T06:23:16.164Z,10.73
2022-08-04T06:24:21.868Z,10.96
2022-08-04T06:26:39.000Z,11.61
2022-08-04T06:27:42.529Z,11.07
2022-08-04T06:28:48.378Z,10.84
2022-08-04T06:29:52.419Z,11.10
2022-08-04T06:30:56.476Z,11.29
2022-08-04T06:32:26.931Z,10.44
2022-08-04T06:33:06.930Z,15.23
2022-08-04T06:34:12.128Z,11.65
2022-08-04T06:35:16.553Z,12.68
2022-08-04T06:36:19.822Z,11.82
2022-08-04T06:37:40.922Z,12.37
2022-08-04T06:38:29.874Z,11.39
2022-08-04T06:39:33.151Z,11.78
2022-08-04T06:40:36.086Z,12.43
2022-08-04T06:42:14.789Z,11.67
2022-08-04T06:42:44.532Z,11.82
2022-08-04T06:43:47.498Z,11.34
2022-08-04T06:44:53.377Z,11.53
2022-08-04T06:45:58.799Z,11.88
2022-08-04T06:47:03.147Z,10.11
2022-08-04T06:48:10.399Z,11.17
2022-08-04T06:49:13.871Z,10.64
2022-08-04T06:51:25.816Z,11.50
2022-08-04T06:51:32.148Z,12.11
2022-08-04T06:52:27.014Z,11.26
2022-08-04T06:53:29.646Z,11.95
2022-08-04T06:54:31.975Z,10.15
2022-08-04T06:55:34.616Z,11.91
2022-08-04T06:56:38.803Z,11.30
2022-08-04T06:57:42.629Z,10.84
2022-08-04T06:58:46.308Z,11.05
2022-08-04T06:59:52.244Z,10.97
2022-08-04T07:00:56.074Z,10.26
2022-08-04T07:01:59.770Z,11.08
2022-08-04T07:03:03.832Z,11.34
2022-08-04T07:04:06.517Z,11.12
2022-08-04T07:05:10.524Z,10.34
2022-08-04T07:06:15.000Z,11.10
2022-08-04T07:07:17.814Z,11.08
2022-08-04T07:08:21.918Z,10.55
2022-08-04T07:09:24.161Z,11.71
2022-08-04T07:10:27.557Z,10.93
2022-08-04T07:11:39.235Z,11.03
2022-08-04T07:12:38.122Z,10.63
2022-08-04T07:13:45.041Z,10.97
2022-08-04T07:14:46.501Z,9.93
2022-08-04T07:16:17.864Z,10.90
2022-08-04T07:17:21.312Z,10.51
2022-08-04T07:18:23.922Z,10.65
2022-08-04T07:19:26.201Z,11.44
2022-08-04T07:20:34.240Z,10.83
2022-08-04T07:21:35.105Z,11.44
2022-08-04T07:22:38.186Z,12.29
2022-08-04T07:23:40.487Z,12.33
2022-08-04T07:24:42.893Z,12.17
2022-08-04T07:26:11.916Z,12.05
2022-08-04T07:26:57.237Z,11.31
2022-08-04T07:27:59.440Z,11.37
2022-08-04T07:29:02.309Z,10.63
2022-08-04T07:30:09.344Z,12.22
2022-08-04T07:31:16.554Z,11.24
2022-08-04T07:32:23.633Z,13.84
2022-08-04T07:33:29.639Z,11.12
2022-08-04T07:34:32.430Z,10.50
2022-08-04T07:36:05.758Z,11.46
2022-08-04T07:36:50.324Z,13.51
2022-08-04T07:37:46.378Z,13.05
2022-08-04T07:38:51.682Z,10.51
2022-08-04T07:39:53.111Z,11.22
2022-08-04T07:40:56.040Z,11.73
2022-08-04T07:42:01.407Z,11.93
2022-08-04T07:43:05.048Z,11.49
2022-08-04T07:44:08.455Z,11.38
2022-08-04T07:45:11.108Z,10.94
2022-08-04T07:46:15.204Z,10.48
2022-08-04T07:47:20.987Z,10.69
2022-08-04T07:48:21.668Z,10.71
2022-08-04T07:49:55.216Z,11.52
2022-08-04T07:50:29.589Z,10.46
2022-08-04T07:51:33.350Z,12.06
2022-08-04T07:52:39.874Z,10.32
2022-08-04T07:53:55.596Z,10.43
2022-08-04T07:54:47.420Z,10.21
2022-08-04T07:55:49.989Z,10.95
2022-08-04T07:56:52.958Z,10.49
2022-08-04T07:57:55.734Z,10.44
2022-08-04T07:58:59.668Z,9.64
2022-08-04T08:00:04.236Z,9.35
2022-08-04T08:01:07.672Z,10.16
2022-08-04T08:02:10.411Z,9.28
2022-08-04T08:03:14.658Z,9.97
2022-08-04T08:04:17.892Z,10.89
2022-08-04T08:05:23.598Z,10.14
2022-08-04T08:06:32.316Z,9.51
2022-08-04T08:07:31.238Z,9.22
2022-08-04T08:08:37.215Z,9.42
2022-08-04T08:09:39.967Z,10.00
2022-08-04T08:10:47.097Z,9.69
2022-08-04T08:12:36.047Z,9.42
2022-08-04T08:12:56.287Z,9.75
2022-08-04T08:13:59.243Z,9.03
2022-08-04T08:15:02.834Z,9.51
2022-08-04T08:16:06.024Z,8.96
2022-08-04T08:17:08.214Z,9.69
2022-08-04T08:18:10.343Z,9.28
2022-08-04T08:19:13.399Z,9.18
2022-08-04T08:20:16.080Z,9.11
2022-08-04T08:21:22.079Z,7.63
2022-08-04T08:22:24.656Z,8.12
2022-08-04T08:23:29.790Z,8.92
2022-08-04T08:24:35.402Z,8.87
2022-08-04T08:25:37.974Z,8.31
2022-08-04T08:26:41.029Z,7.72
2022-08-04T08:27:56.237Z,7.75
2022-08-04T08:28:47.733Z,8.06
2022-08-04T08:29:51.368Z,8.52
2022-08-04T08:30:53.852Z,8.31
2022-08-04T08:32:07.033Z,8.28
2022-08-04T08:33:07.350Z,8.18
2022-08-04T08:34:12.348Z,8.44
2022-08-04T08:35:17.294Z,8.15
2022-08-04T08:36:26.725Z,9.04
2022-08-04T08:37:42.097Z,8.24
2022-08-04T08:38:52.181Z,8.21
2022-08-04T08:40:00.871Z,8.03
2022-08-04T08:41:21.975Z,8.05
2022-08-04T08:42:56.970Z,7.24
2022-08-04T08:44:30.156Z,7.69
2022-08-04T08:45:57.314Z,7.77
2022-08-04T08:47:06.530Z,8.54
2022-08-04T08:48:12.322Z,8.18
2022-08-04T08:50:01.786Z,8.27
2022-08-04T08:51:00.014Z,7.86
2022-08-04T08:52:56.186Z,8.33
2022-08-04T08:53:37.648Z,7.48
2022-08-04T08:55:13.859Z,7.56
2022-08-04T08:56:40.972Z,8.08
2022-08-04T08:58:01.406Z,7.97
2022-08-04T08:59:15.117Z,7.56
2022-08-04T09:00:23.836Z,7.57
2022-08-04T09:01:52.921Z,8.01
2022-08-04T09:03:14.317Z,8.04
2022-08-04T09:04:26.704Z,7.71
2022-08-04T09:05:49.439Z,7.41
2022-08-04T09:07:23.607Z,7.68
2022-08-04T09:08:49.648Z,6.89
2022-08-04T09:10:11.129Z,6.93
2022-08-04T09:11:16.855Z,6.72
2022-08-04T09:12:31.618Z,6.64
2022-08-04T09:13:39.959Z,6.82
2022-08-04T09:14:51.673Z,6.78
2022-08-04T09:16:06.259Z,6.77
2022-08-04T09:17:27.487Z,7.32
2022-08-04T09:18:36.014Z,7.86
2022-08-04T09:19:44.543Z,7.17
2022-08-04T09:20:59.750Z,6.74
2022-08-04T09:24:02.319Z,7.67
2022-08-04T09:25:13.971Z,6.78
2022-08-04T09:26:20.165Z,7.03
2022-08-04T09:27:26.211Z,7.66
2022-08-04T09:28:52.850Z,7.17
2022-08-04T09:29:56.485Z,7.09
2022-08-04T09:31:11.344Z,6.42
2022-08-04T09:32:22.826Z,6.92
2022-08-04T09:33:45.608Z,7.56
2022-08-04T09:35:08.625Z,7.02
2022-08-04T09:36:24.726Z,6.52
2022-08-04T09:37:34.734Z,7.03
2022-08-04T09:38:52.786Z,6.33
2022-08-04T09:39:56.050Z,6.54
2022-08-04T09:41:20.636Z,6.80
2022-08-04T09:42:34.306Z,6.52
2022-08-04T09:43:59.151Z,6.30
2022-08-04T09:45:26.173Z,6.78
2022-08-04T09:46:29.396Z,7.29
2022-08-04T09:47:39.563Z,6.06
2022-08-04T09:48:54.782Z,6.36
2022-08-04T09:50:20.529Z,6.44
2022-08-04T09:51:57.444Z,6.36
2022-08-04T09:53:04.483Z,6.30
2022-08-04T09:54:30.135Z,6.52
2022-08-04T09:55:24.395Z,6.91
2022-08-04T09:56:57.870Z,7.34
2022-08-04T09:58:29.794Z,7.33
2022-08-04T10:00:49.675Z,6.71
2022-08-04T10:01:59.109Z,7.23
2022-08-04T10:03:02.431Z,5.91
2022-08-04T10:04:10.931Z,7.01
2022-08-04T10:05:16.462Z,8.57
2022-08-04T10:06:28.809Z,7.94
2022-08-04T10:07:43.615Z,6.27
2022-08-04T10:09:08.075Z,6.12
2022-08-04T10:10:38.553Z,6.64
2022-08-04T10:12:17.819Z,6.87
2022-08-04T10:13:27.249Z,5.66
2022-08-04T10:14:54.259Z,6.32
2022-08-04T10:16:15.211Z,5.73
2022-08-04T10:17:52.097Z,6.47
2022-08-04T10:20:11.040Z,6.33
2022-08-04T10:21:50.593Z,6.72
2022-08-04T10:23:09.259Z,6.58
2022-08-04T10:24:29.230Z,6.59
2022-08-04T10:26:05.314Z,6.71
2022-08-04T10:27:12.257Z,6.63
2022-08-04T10:28:19.711Z,7.21
2022-08-04T10:29:41.973Z,6.61
2022-08-04T10:30:53.614Z,7.65
2022-08-04T10:32:02.649Z,7.67
2022-08-04T10:33:14.320Z,7.99
2022-08-04T10:34:21.759Z,6.24
2022-08-04T10:35:27.410Z,6.33
2022-08-04T10:36:39.152Z,6.41
2022-08-04T10:38:02.417Z,5.94
2022-08-04T10:39:43.556Z,5.76
2022-08-04T10:42:00.003Z,4.84
2022-08-04T10:43:25.611Z,7.39
2022-08-04T10:44:46.018Z,6.99
2022-08-04T10:45:57.714Z,8.91
2022-08-04T10:47:02.379Z,7.83
2022-08-04T10:48:16.968Z,7.14
2022-08-04T10:49:36.660Z,7.47
2022-08-04T10:50:42.549Z,5.87
2022-08-04T10:51:58.489Z,7.11
2022-08-04T10:53:04.841Z,6.21
2022-08-04T10:54:12.580Z,6.40
2022-08-04T10:55:20.688Z,6.22
2022-08-04T10:56:38.306Z,6.81
2022-08-04T10:58:02.419Z,6.64
2022-08-04T10:59:09.278Z,6.63
2022-08-04T11:00:27.475Z,6.01
2022-08-04T11:02:00.008Z,5.58
2022-08-04T11:02:58.707Z,5.67
2022-08-04T11:04:07.663Z,6.70
2022-08-04T11:05:22.294Z,6.31
2022-08-04T11:06:25.989Z,5.74
2022-08-04T11:07:31.833Z,6.02
2022-08-04T11:08:40.134Z,5.61
2022-08-04T11:09:44.493Z,5.99
2022-08-04T11:10:59.638Z,5.58
2022-08-04T11:13:22.049Z,5.89
2022-08-04T11:14:25.702Z,6.14
2022-08-04T11:15:37.565Z,6.22
2022-08-04T11:16:57.312Z,5.76
2022-08-04T11:19:45.331Z,5.07
2022-08-04T11:21:02.613Z,5.58
2022-08-04T11:22:25.227Z,5.63
2022-08-04T11:23:31.010Z,6.37
2022-08-04T11:24:51.840Z,5.66
2022-08-04T11:26:00.571Z,5.99
2022-08-04T11:27:12.353Z,6.46
2022-08-04T11:28:33.156Z,6.51
2022-08-04T11:30:05.813Z,6.02
2022-08-04T11:32:34.112Z,5.60
2022-08-04T11:33:49.126Z,5.66
2022-08-04T11:34:55.215Z,6.04
2022-08-04T11:36:03.952Z,5.76
2022-08-04T11:37:18.902Z,5.88
2022-08-04T11:38:41.501Z,6.15
2022-08-04T11:39:54.918Z,6.64
2022-08-04T11:41:03.175Z,6.02
2022-08-04T11:42:14.003Z,6.86
2022-08-04T11:44:00.987Z,5.79
2022-08-04T11:44:36.423Z,5.82
2022-08-04T11:45:42.359Z,6.77
2022-08-04T11:46:51.298Z,6.77
2022-08-04T11:47:57.006Z,6.48
2022-08-04T11:49:08.673Z,6.39
2022-08-04T11:50:14.673Z,5.98
2022-08-04T11:51:18.579Z,6.62
2022-08-04T11:52:21.670Z,5.97
2022-08-04T11:53:36.390Z,7.71
2022-08-04T11:54:33.730Z,6.34
2022-08-04T11:56:09.110Z,6.73
2022-08-04T11:56:42.065Z,6.24
2022-08-04T11:57:44.683Z,5.98
2022-08-04T11:58:50.494Z,5.68
2022-08-04T11:59:54.525Z,6.35
2022-08-04T12:01:21.771Z,6.08
2022-08-04T12:02:53.874Z,6.12
2022-08-04T12:04:14.911Z,5.96
2022-08-04T12:05:23.537Z,5.99
2022-08-04T12:06:37.789Z,5.94
2022-08-04T12:08:01.667Z,5.79
2022-08-04T12:09:19.601Z,5.99
2022-08-04T12:10:42.338Z,6.69
2022-08-04T12:11:51.236Z,6.08
2022-08-04T12:13:25.815Z,6.49
2022-08-04T12:14:34.701Z,6.44
2022-08-04T12:16:05.067Z,6.47
2022-08-04T12:17:07.313Z,7.57
2022-08-04T12:18:22.236Z,8.99
2022-08-04T12:19:56.099Z,7.14
2022-08-04T12:20:49.197Z,7.20
2022-08-04T12:21:56.728Z,6.22
2022-08-04T12:23:00.723Z,4.66
2022-08-04T12:24:09.785Z,5.74
2022-08-04T12:25:15.633Z,5.73
2022-08-04T12:26:25.832Z,6.21
2022-08-04T12:27:31.656Z,5.16
2022-08-04T12:29:09.149Z,6.26
2022-08-04T12:30:53.962Z,5.04
2022-08-04T12:30:57.761Z,4.71
2022-08-04T12:32:17.664Z,5.18
2022-08-04T12:34:02.766Z,5.64
2022-08-04T12:34:42.663Z,5.19
2022-08-04T12:36:11.372Z,5.97
2022-08-04T12:37:08.336Z,5.00
2022-08-04T12:38:12.964Z,4.67
2022-08-04T12:39:17.112Z,4.25
2022-08-04T12:40:31.214Z,4.40
2022-08-04T12:41:45.967Z,4.43
2022-08-04T12:42:55.962Z,3.71
2022-08-04T12:43:59.443Z,3.68
2022-08-04T12:45:05.225Z,3.38
2022-08-04T12:46:14.662Z,3.33
2022-08-04T12:47:27.888Z,3.96
2022-08-04T12:48:23.487Z,3.67
2022-08-04T12:49:27.093Z,4.45
2022-08-04T12:50:31.321Z,4.01
2022-08-04T12:52:07.958Z,4.30
2022-08-04T12:53:05.157Z,4.22
2022-08-04T12:53:56.930Z,4.20
2022-08-04T12:54:59.926Z,4.53
2022-08-04T12:56:03.709Z,5.37
2022-08-04T12:57:07.667Z,4.76
2022-08-04T12:58:43.205Z,5.05
2022-08-04T12:59:23.613Z,4.48
2022-08-04T13:00:31.270Z,5.25
2022-08-04T13:02:09.506Z,4.69
2022-08-04T13:02:44.736Z,4.88
2022-08-04T13:03:50.630Z,4.67
2022-08-04T13:04:55.297Z,5.13
2022-08-04T13:05:57.419Z,4.96
2022-08-04T13:07:06.341Z,4.87
2022-08-04T13:08:11.787Z,5.99
2022-08-04T13:09:17.603Z,5.61
2022-08-04T13:10:30.297Z,5.49
2022-08-04T13:11:29.395Z,6.18
2022-08-04T13:12:34.685Z,5.67
2022-08-04T13:13:38.567Z,6.03
2022-08-04T13:14:41.971Z,5.14
2022-08-04T13:15:57.194Z,5.98
2022-08-04T13:17:00.831Z,6.43
2022-08-04T13:18:06.511Z,4.84
2022-08-04T13:19:11.479Z,6.18
2022-08-04T13:20:15.342Z,5.86
2022-08-04T13:22:27.209Z,5.76
2022-08-04T13:24:09.433Z,5.51
2022-08-04T13:24:56.346Z,5.46
2022-08-04T13:26:43.389Z,5.31
2022-08-04T13:27:04.192Z,6.00
2022-08-04T13:28:10.138Z,5.64
2022-08-04T13:29:16.549Z,5.52
2022-08-04T13:30:22.956Z,5.03
2022-08-04T13:30:24.962Z,6.16
2022-08-04T13:31:27.848Z,6.36
2022-08-04T13:32:35.205Z,6.60
2022-08-04T13:33:39.429Z,6.83
2022-08-04T13:34:48.847Z,6.45
2022-08-04T13:35:55.168Z,6.63
2022-08-04T13:36:55.293Z,6.11
2022-08-04T13:37:58.670Z,5.47
2022-08-04T13:39:06.411Z,5.72
2022-08-04T13:40:12.764Z,6.66
2022-08-04T13:41:17.063Z,5.74
2022-08-04T13:42:20.077Z,5.45
2022-08-04T13:44:16.130Z,5.69
2022-08-04T13:44:33.008Z,5.63
2022-08-04T13:45:37.936Z,5.54
2022-08-04T13:46:44.359Z,5.57
2022-08-04T13:47:48.915Z,6.00
2022-08-04T13:49:15.926Z,5.35
2022-08-04T13:50:12.139Z,5.53
2022-08-04T13:51:20.879Z,5.73
2022-08-04T13:52:25.664Z,5.64
2022-08-04T13:53:31.165Z,5.70
2022-08-04T13:54:42.388Z,6.04
2022-08-04T13:55:46.298Z,5.39
2022-08-04T13:56:52.324Z,5.89
2022-08-04T13:58:16.208Z,6.03
2022-08-04T13:59:20.883Z,6.48
2022-08-04T14:00:29.727Z,5.81
2022-08-04T14:01:35.508Z,5.61
2022-08-04T14:04:07.184Z,5.14
2022-08-04T14:05:18.739Z,5.59
2022-08-04T14:06:26.659Z,4.96
2022-08-04T14:07:31.175Z,5.27
2022-08-04T14:08:54.092Z,5.82
2022-08-04T14:10:03.989Z,6.22
2022-08-04T14:11:00.714Z,6.08
2022-08-04T14:12:38.174Z,5.33
2022-08-04T14:13:19.858Z,5.06
2022-08-04T14:14:30.975Z,4.98
2022-08-04T14:15:59.384Z,5.31
2022-08-04T14:17:08.199Z,5.46
2022-08-04T14:18:21.366Z,5.52
2022-08-04T14:20:27.369Z,4.96
2022-08-04T14:21:33.368Z,5.82
2022-08-04T14:22:36.219Z,5.39
2022-08-04T14:23:53.772Z,5.56
2022-08-04T14:25:02.589Z,4.95
2022-08-04T14:26:32.996Z,4.90
2022-08-04T14:27:46.025Z,5.40
2022-08-04T14:29:09.520Z,4.78
2022-08-04T14:29:53.424Z,5.12
2022-08-04T14:31:10.061Z,5.00
2022-08-04T14:32:14.805Z,4.76
2022-08-04T14:34:04.373Z,4.86
2022-08-04T14:34:28.973Z,4.93
2022-08-04T14:35:49.852Z,4.57
2022-08-04T14:37:00.707Z,3.99
2022-08-04T14:37:58.933Z,4.08
2022-08-04T14:39:03.072Z,3.76
2022-08-04T14:40:17.436Z,4.07
2022-08-04T14:41:10.831Z,4.35
2022-08-04T14:42:13.939Z,3.64
2022-08-04T14:43:17.647Z,3.94
2022-08-04T14:44:19.915Z,3.88
2022-08-04T14:45:36.660Z,3.82
2022-08-04T14:46:53.403Z,4.07
2022-08-04T14:47:55.885Z,3.42
2022-08-04T14:49:12.362Z,3.09
2022-08-04T14:50:15.170Z,3.68
2022-08-04T14:51:17.349Z,3.85
2022-08-04T14:52:26.350Z,3.78
2022-08-04T14:53:28.648Z,4.02
2022-08-04T14:54:33.819Z,4.59
2022-08-04T14:55:37.368Z,4.34
2022-08-04T14:56:48.623Z,4.41
2022-08-04T14:58:35.799Z,4.66
2022-08-04T14:59:02.028Z,4.22
2022-08-04T15:00:10.186Z,4.44
2022-08-04T15:01:12.236Z,4.39
2022-08-04T15:02:15.762Z,4.97
2022-08-04T15:03:19.759Z,4.33
2022-08-04T15:04:23.882Z,4.66
2022-08-04T15:06:02.323Z,4.88
2022-08-04T15:06:32.889Z,5.42
2022-08-04T15:07:35.950Z,4.86
2022-08-04T15:08:38.320Z,4.76
2022-08-04T15:09:41.784Z,4.89
2022-08-04T15:10:45.690Z,5.53
2022-08-04T15:11:47.989Z,5.46
2022-08-04T15:12:50.150Z,5.57
2022-08-04T15:13:53.213Z,5.74
2022-08-04T15:15:01.683Z,6.48
2022-08-04T15:16:06.371Z,6.00
2022-08-04T15:17:09.877Z,6.06
2022-08-04T15:18:10.320Z,7.05
2022-08-04T15:19:13.319Z,6.75
2022-08-04T15:20:16.412Z,5.76
2022-08-04T15:21:18.676Z,6.49
2022-08-04T15:22:20.933Z,6.65
2022-08-04T15:23:23.084Z,6.25
2022-08-04T15:24:27.195Z,7.90
2022-08-04T15:25:47.403Z,7.15
2022-08-04T15:26:52.793Z,6.83
2022-08-04T15:27:56.666Z,6.72
2022-08-04T15:30:27.976Z,6.26
2022-08-04T15:32:07.906Z,6.12
2022-08-04T15:32:44.446Z,5.84
2022-08-04T15:33:48.151Z,6.49
2022-08-04T15:34:51.874Z,6.33
2022-08-04T15:35:57.202Z,6.59
2022-08-04T15:37:03.080Z,5.82
2022-08-04T15:38:08.845Z,5.60
2022-08-04T15:39:17.578Z,5.32
2022-08-04T15:40:33.860Z,5.44
2022-08-04T15:41:55.629Z,5.91
2022-08-04T15:43:04.543Z,5.69
2022-08-04T15:44:15.511Z,5.72
2022-08-04T15:45:22.322Z,4.71
2022-08-04T15:46:46.296Z,5.42
2022-08-04T15:48:04.022Z,4.88
2022-08-04T15:49:23.681Z,5.36
2022-08-04T15:50:28.003Z,4.67
2022-08-04T15:51:33.021Z,6.09
2022-08-04T15:53:00.665Z,4.89
2022-08-04T15:54:20.302Z,5.11
2022-08-04T15:55:39.379Z,5.32
2022-08-04T15:56:48.382Z,5.02
2022-08-04T15:57:59.150Z,5.02
2022-08-04T15:59:01.503Z,5.36
2022-08-04T16:00:09.994Z,5.19